Accueil
METAR-TAF:

METAR-TAF

Aéroports :

Aéroport de Longyearbyen

Longyearbyen, Norvège

latitude: 78-15N, longitude: 015-28E, altitude: 2 m

Observation

Le bulletin a été fait il y a 22 minutes, à 03:50 UTC
Vent 7 kt de ouest
Température 3°C
Humidité 93%
Pression 1011 hPa
Visibilité: 2500 m
Partiellement couvert par le brouillard

METAR: ENSB 230350Z 26007KT 2500 PRFG VV004 03/02 Q1011 RMK WIND 1400FT 11010KT

Heure: 06:12 (04:12 UTC)

Prévision

Prévision valable du 23 à 00 UTC au 23 à 24 UTC
Vent 8 kt de ouest
Visibilité 10 km ou plus
Quelques nuages à une hauteur de 800 ft
Nuages épars à une hauteur de 5000 ft
Probabilité 40% :
Temporairement
du 23 à 00 UTC au 23 à 06 UTC
Visibilité: 0500 m
à une hauteur de 200 ft
brouillard

TAF: ENSB 2300/2324 26008KT 9999 FEW008 SCT050 PROB40 TEMPO 2300/2306 0500 FG VV002

Observations et prévisions météorologiques de plus de 4000 aéroports (messages METAR et TAF).

Les stations disponibles sont représentées par des disques jaunes et rouges sur la carte.

Passer la souris dessus pour voir le nom de la station.

Cliquer dessus pour voir les observations et prévisions météorologiques.

Pour changer de carte: cliquez sur les boutons verts avec une croix noire pour zoomer, sur le bouton vert avec un tiret pour effectuer un zoom arrière, ou sur les flèches vertes pour les cartes adjacentes.


METAR-TAF: